• Join FlightAware (Why Join?)
  • Login
  • US Flag 
12:58PM EDT


 

Airport Tracker/Info


-or-


 

Live Flight TrackerFlight Track Log ✈ RPA3392 ✈ 01-Feb-2014 ✈ KCLT - KCLE

Flight Track Log - Related Links

Times and Time Zones

All times are in EST time to prevent confusion due to time zone crossing. See the RPA3392 flight status page for this flight to view local times or setup timezone preferences in your user account.

Time Position Orientation Groundspeed Altitude Reporting Facility
EST Latitude Longitude Course Direction KTS MPH feet Rate Location/Type
08:17AM 35.1911 -80.9508 354° North 163 188 1,400  Level Atlanta Center
08:18AM 35.1536 -80.9522 182° South 185 213 2,400 1,800 Climbing Atlanta Center
08:19AM 35.1108 -80.9919 217° Southwest 236 272 4,700 2,280 Climbing Atlanta Center
08:19AM 35.1133 -81.0072 281° West 245 282 5,100 2,820 Climbing Atlanta Center
08:20AM 35.1214 -81.0831 277° West 262 302 7,600 2,760 Climbing Atlanta Center
08:20AM 35.1217 -81.0958 272° West 260 299 7,900 1,920 Climbing Atlanta Center
08:21AM 35.6390 -81.0065 354° North  Level Estimated
08:21AM 35.1297 -81.1742 277° West 266 306 9,600  Level Atlanta Center
08:21AM 35.1322 -81.1817 292° West 275 316 9,900 1,560 Climbing Atlanta Center
08:22AM 35.7241 -81.0181 354° North  Level Estimated
08:22AM 35.2078 -81.2044 346° North 352 405 11,400  Level Atlanta Center
08:23AM 35.2981 -81.1428 29° Northeast 369 425 14,200 2,520 Climbing Atlanta Center
08:24AM 35.3931 -81.1039 18° North 364 419 16,500 1,920 Climbing Atlanta Center
08:25AM 35.4958 -81.1231 351° North 348 400 18,100 1,860 Climbing Atlanta Center
08:27AM 35.7078 -81.1694 350° North 371 427 22,200 1,860 Climbing Atlanta Center
08:28AM 35.8167 -81.1936 350° North 384 442 23,800 1,560 Climbing Atlanta Center
08:29AM 35.9300 -81.2178 350° North 396 456 25,400 1,500 Climbing Atlanta Center
08:30AM 36.0325 -81.2400 350° North 404 465 26,800 1,500 Climbing Atlanta Center
08:31AM 36.1458 -81.2669 349° North 411 473 28,400 1,260 Climbing Atlanta Center
08:32AM 36.2611 -81.2914 350° North 416 479 29,400 960 Climbing Atlanta Center
08:33AM 36.3786 -81.3183 350° North 416 479 30,400 900 Climbing Atlanta Center
08:34AM 36.5767 -81.3617 350° North 434 499 31,900 540 Climbing Indianapolis Center
08:35AM 36.6947 -81.3883 350° North 439 505 32,000  Climbing Indianapolis Center
08:36AM 36.8153 -81.4150 350° North 447 514 32,000  Level Indianapolis Center
08:38AM 36.9567 -81.4478 350° North 442 509 32,000  Level Indianapolis Center
08:39AM 37.0678 -81.4725 350° North 440 506 32,000  Level Indianapolis Center
08:40AM 37.1881 -81.5003 350° North 441 507 32,000  Level Indianapolis Center
08:41AM 37.3092 -81.5222 352° North 441 507 32,000  Level Indianapolis Center
08:42AM 37.4311 -81.5444 352° North 442 509 32,000  Level Indianapolis Center
08:43AM 37.5497 -81.5667 352° North 434 499 32,000  Level Indianapolis Center
08:44AM 37.6906 -81.5928 352° North 437 503 32,000  Level Indianapolis Center
08:45AM 37.8100 -81.6144 352° North 434 499 32,000  Level Indianapolis Center
08:46AM 37.9306 -81.6367 352° North 435 501 32,000  Level Indianapolis Center
08:47AM 38.0511 -81.6586 352° North 436 502 32,000  Level Indianapolis Center
08:48AM 38.1714 -81.6811 352° North 436 502 32,000  Level Indianapolis Center
08:49AM 38.2936 -81.7053 351° North 441 507 32,000  Level Indianapolis Center
08:50AM 38.4147 -81.7289 351° North 440 506 32,000  Level Indianapolis Center
08:51AM 38.5378 -81.7522 352° North 441 507 32,000  Level Indianapolis Center
08:52AM 38.6600 -81.7756 352° North 437 503 32,000  Level Indianapolis Center
08:53AM 38.7794 -81.7975 352° North 427 491 32,000  Level Indianapolis Center
08:54AM 38.8972 -81.8197 352° North 422 486 32,000  Level Indianapolis Center
08:55AM 39.0153 -81.8428 351° North 425 489 32,000  Level Indianapolis Center
08:56AM 39.1303 -81.8653 351° North 416 479 32,000  Level Indianapolis Center
08:57AM 39.2458 -81.8872 352° North 419 482 32,000  Level Indianapolis Center
08:58AM 39.3611 -81.9100 351° North 418 481 32,000 -120 Level Indianapolis Center
08:59AM 39.4747 -81.9328 351° North 413 475 31,800 -1,260 Descending Indianapolis Center
09:00AM 39.5886 -81.9542 352° North 413 475 29,500 -1,380 Descending Indianapolis Center
09:01AM 39.7094 -81.9778 351° North 427 491 29,000 -300 Descending Indianapolis Center
09:02AM 39.8289 -82.0014 351° North 435 501 29,000 -780 Level Indianapolis Center
09:03AM 39.9453 -82.0244 351° North 428 493 27,500 -1,380 Descending Indianapolis Center
09:04AM 40.0589 -82.0461 352° North 419 482 26,200 -1,680 Descending Indianapolis Center
09:05AM 40.1708 -82.0689 351° North 412 474 24,200 -2,040 Descending Indianapolis Center
09:06AM 40.2867 -82.0922 351° North 397 457 22,100 -1,980 Descending Indianapolis Center
09:07AM 40.3897 -82.1125 351° North 374 430 20,200 -1,920 Descending Indianapolis Center
09:08AM 40.4919 -82.0897 10° North 380 437 18,300 -1,920 Descending Indianapolis Center
09:09AM 40.5858 -81.9997 36° Northeast 410 472 16,300 -1,980 Descending Indianapolis Center
09:10AM 40.6747 -81.9106 37° Northeast 399 459 14,300 -1,920 Descending Indianapolis Center
09:11AM 40.7619 -81.8236 37° Northeast 392 451 12,400 -1,860 Descending Indianapolis Center
09:12AM 40.8436 -81.7403 38° Northeast 376 433 10,600 -1,200 Descending Indianapolis Center
09:13AM 40.9211 -81.6625 37° Northeast 355 409 10,000 -240 Descending Indianapolis Center
09:14AM 41.0169 -81.6481 North 289 333 10,100  Climbing Cleveland Center
09:14AM 41.0419 -81.6539 350° North 301 346 10,000 -120 Descending Cleveland Center
09:15AM 41.0967 -81.6747 344° North 293 337 10,000 -420 Level Cleveland Center
09:15AM 41.1219 -81.6800 351° North 294 338 9,600 -1,500 Descending Cleveland Center
09:16AM 41.1742 -81.6983 345° North 290 334 8,500 -1,680 Descending Cleveland Center
09:16AM 41.2011 -81.7067 347° North 291 335 7,900 -1,260 Descending Cleveland Center
09:17AM 41.2614 -81.7317 343° North 281 323 7,100 -900 Descending Cleveland Center
09:17AM 41.2786 -81.7342 354° North 283 326 7,000 -300 Descending Cleveland Center
09:18AM 41.3431 -81.7225 North 294 338 6,800 -780 Descending Cleveland Center
09:19AM 41.4056 -81.6711 32° Northeast 293 337 5,600 -1,380 Descending Cleveland Center
09:20AM 41.4136 -81.6639 34° Northeast 291 335 5,400 -1,440 Descending Cleveland Center
09:20AM 41.4828 -81.6056 32° Northeast 282 325 4,000 -1,380 Descending Cleveland Center
09:21AM 41.4811 -81.6078 225° Southwest 284 327 4,000 -120 Level Cleveland Center
09:21AM 41.5369 -81.6114 357° North 193 222 3,900 -120 Descending Cleveland Center
09:22AM 41.5356 -81.6103 149° Southeast 239 275 3,900 60 Level Cleveland Center
09:22AM 41.5297 -81.6661 262° West 148 170 4,000 60 Climbing Cleveland Center
09:23AM 41.5278 -81.6686 224° Southwest 186 214 4,000 -360 Level Cleveland Center
09:23AM 41.5075 -81.7044 233° Southwest 161 185 3,700 -540 Descending Cleveland Center
09:24AM 41.4989 -81.7133 218° Southwest 166 191 3,500 -900 Descending Cleveland Center
09:24AM 41.4781 -81.7500 233° Southwest 147 169 2,800 -900 Descending Cleveland Center
09:25AM 41.4717 -81.7597 229° Southwest 145 167 2,600 -600 Descending Cleveland Center
09:25AM 41.4586 -81.7803 230° Southwest 101 116 2,200 -600 Descending Cleveland Center
09:26AM 41.4511 -81.7897 223° Southwest 119 137 2,000 -660 Descending Cleveland Center
09:27AM 41.4300 -81.8250 231° Southwest 119 137 1,300 -600 Descending Cleveland Center
09:28AM 41.4061 -81.8611 229° Southwest 126 145 800 -540 Descending Cleveland Center